Red Wing, MN (55066)

11:20 PM CDT on September 21, 2014 (GMT -0500)
Red Wing Municipal | Change Station
CLOSE
Current Station
Airport
Location: Red Wing,
Elevation: 784 ft
Nearby Weather Stations

Elev 784 ft 44.59 °N, 92.49 °W | Updated 5 minutes ago

Clear
Clear
48 °F
Feels Like 48 °F
N
0
Wind Variable Wind from North

Today
High -- | Low -- °F
--% Chance of Precip.
Yesterday
High -- | Low -- °F
Precip. -- in
6:56 AM 7:09 PM
Waning Crescent, 4% visible
Pressure 30.21 in
Visibility 10.0 miles
Clouds Clear
Dew Point 46 °F
Humidity 93%
Rainfall 0.01 in
Snow Depth Not available.
UV 0 out of 12
Pollen 4.00 out of 12
Ozone Good
PM2.5 Good
Flu Activity Not available.
METAR KRGK 220415Z AUTO 00000KT 10SM CLR 09/08 A3021 RMK AO2

More Conditions Fewer Conditions

Pressure 30.21 in
Visibility 10.0 miles
Clouds Clear
Dew Point 46 °F
Humidity 93%
Rainfall 0.01 in
Snow Depth Not available.
UV 0 out of 12
Pollen 4.00 out of 12
Ozone Good
PM2.5 Good
Flu Activity Not available.
METAR KRGK 220415Z AUTO 00000KT 10SM CLR 09/08 A3021 RMK AO2

More Conditions Fewer Conditions

10-Day Weather Forecast

Almanac

Astronomy

Sep. 21, 2014 Rise Set
Actual Time 6:56 AM CDT 7:09 PM CDT
Civil Twilight 6:27 AM CDT 7:38 PM CDT
Nautical Twilight 5:52 AM CDT 8:12 PM CDT
Astronomical Twilight 5:17 AM CDT 8:47 PM CDT
Moon 4:25 AM CDT (9/21) 5:49 PM CDT (9/21)
Length of Visible Light 13h 11m
Length of Day
12h 13m
Tomorrow will be 3m 4s shorter.
Waning Crescent, 4% of the Moon is Illuminated
Sep 22
Waning Crescent
Sep 24
New
Oct 1
First Quarter
Oct 8
Full
Oct 15
Last Quarter

Today's Extremes

State Highs State Lows

Community

WunderPhotos

Upload Photos

1,755,384 photos uploaded!

Nearby

Air Quality

  Air Quality AQ Index Pollutant
Yesterday Good
PM2.5
Yesterday Good
OZONE
Current Good
OZONE
Current Good
PM2.5
Sunday Good
OZONE
Sunday Good
PM2.5
Monday Good
OZONE
Monday Good
PM2.5
Tuesday Good
OZONE
Tuesday Good
PM2.5
Wednesday Moderate
PM2.5
Wednesday Good
OZONE
Thursday Moderate
PM2.5
Thursday Good
OZONE
Friday Moderate
PM2.5
Friday Moderate
OZONE

Snow Depth

Station Depth Elevation
No new snow has been reported.

Earthquake Activity

City Distance Mag. Time & Date
No recent earthquake activity has been reported nearby.
Minimum magnitude displayed is 2.5.

Coastal Water Temperatures

Place Temperature
No Stations Reporting

Nearby Weather Stations